Airfield :
LOGIN :

Register | Disclaimer

   EN    FR    IT 

 










Legend :    VFR   Marginal VFR   IFR   Intensive IFR   Very Intensive IFR
Visi :
Ceiling :
>= 8 km
>= 3000ft
5 to 8 km
1000 to 3000 ft
1500m to 5 km
500 to 1000 ft
800 to 1500m
200 to 500 ft
< 800m
< 200 ft
Symbols :   Thunderstorms  Fog  Heavy snow  Heavy precipitations  Wind > 20 kt
SIGMETs :     Misc.  Thunderstorms  Icing  Turbulence  Mountain Waves  Volcanic Ashes







- Airport Elevation : 235 ft
- IATA code : BZG


EPBY - Bydgoszcz

CURRENT METAR :
  • 181000Z 10006KT 2500 -SN BR BKN007 OVC009 M01/M02 Q1028

EXPIRED METARs :
  • 180930Z 11005KT 090V150 2700 -SN BR BKN007 OVC012 M01/M02 Q1028
  • 180900Z 12006KT 2700 BR FEW006 OVC013 M01/M02 Q1028
  • 180830Z 12004KT 090V150 2800 BR FEW006 OVC015 M01/M02 Q1028
  • 180800Z 14004KT 2800 BR OVC017 M01/M02 Q1028
  • 180730Z 11004KT 2600 BR FEW005 BKN020 M01/M02 Q1027

TAF AMD TAF EPBY
Valid from the 18 at 09:00 until the 19 at 06:00 UTC


180901Z 1809/1906 13004KT 2800 BR SCT006 OVC013
BECMG 1809/1811 OVC007
TEMPO 1810/1906 1000 -SN -SNRA BR OVC002
PROB40 1820/1906 0800 FZFG OVC001
No reported NOTAMs for that airfield.



MET'MAP, your aeronautical weather chart ! - Copyright ORBIFLY December 2007 - Disclaimer

ORBIFLY MET'MAP TEAM :

Programming & Development : Alexandra Zaïnal
Concept & Development : Baudouin d'Aumeries
Co-Development & Prog : Marc-Olivier Méhu
Technical & hardware support : Manuel Goepfert

Contact : metmap@orbifly.com




SOURCES & CREDITS :

   NOAA